sensor_id;sensor_type;location;lat;lon;timestamp;pressure;altitude;pressure_sealevel;temperature;humidity
65190;BME280;51777;53.570;9.984;2022-12-18T00:01:27;102687.75;;;-3.49;100.00
65190;BME280;51777;53.570;9.984;2022-12-18T00:03:54;102682.72;;;-3.52;100.00
65190;BME280;51777;53.570;9.984;2022-12-18T00:06:21;102686.94;;;-3.52;100.00
65190;BME280;51777;53.570;9.984;2022-12-18T00:08:47;102691.16;;;-3.55;100.00
65190;BME280;51777;53.570;9.984;2022-12-18T00:11:20;102684.44;;;-3.54;100.00
65190;BME280;51777;53.570;9.984;2022-12-18T00:13:46;102678.53;;;-3.56;100.00
65190;BME280;51777;53.570;9.984;2022-12-18T00:16:14;102696.25;;;-3.61;100.00
65190;BME280;51777;53.570;9.984;2022-12-18T00:18:41;102696.25;;;-3.59;100.00
65190;BME280;51777;53.570;9.984;2022-12-18T00:21:09;102694.56;;;-3.59;100.00
65190;BME280;51777;53.570;9.984;2022-12-18T00:23:36;102693.75;;;-3.59;100.00
65190;BME280;51777;53.570;9.984;2022-12-18T00:26:06;102699.63;;;-3.59;100.00
65190;BME280;51777;53.570;9.984;2022-12-18T00:28:32;102695.41;;;-3.61;100.00
65190;BME280;51777;53.570;9.984;2022-12-18T00:31:10;102700.47;;;-3.60;100.00
65190;BME280;51777;53.570;9.984;2022-12-18T00:33:36;102713.13;;;-3.60;100.00
65190;BME280;51777;53.570;9.984;2022-12-18T00:36:05;102713.97;;;-3.59;100.00
65190;BME280;51777;53.570;9.984;2022-12-18T00:38:33;102711.41;;;-3.61;100.00
65190;BME280;51777;53.570;9.984;2022-12-18T00:40:58;102704.69;;;-3.62;100.00
65190;BME280;51777;53.570;9.984;2022-12-18T00:43:24;102709.72;;;-3.62;100.00
65190;BME280;51777;53.570;9.984;2022-12-18T00:45:50;102707.22;;;-3.63;100.00
65190;BME280;51777;53.570;9.984;2022-12-18T00:48:15;102703.84;;;-3.64;100.00
65190;BME280;51777;53.570;9.984;2022-12-18T00:50:40;102700.50;;;-3.66;100.00
65190;BME280;51777;53.570;9.984;2022-12-18T00:53:06;102702.16;;;-3.63;100.00
65190;BME280;51777;53.570;9.984;2022-12-18T00:55:31;102709.78;;;-3.68;100.00
65190;BME280;51777;53.570;9.984;2022-12-18T00:57:57;102691.25;;;-3.71;100.00
65190;BME280;51777;53.570;9.984;2022-12-18T01:00:22;102700.53;;;-3.70;100.00
65190;BME280;51777;53.570;9.984;2022-12-18T01:02:47;102699.66;;;-3.74;100.00
65190;BME280;51777;53.570;9.984;2022-12-18T01:05:13;102710.66;;;-3.78;100.00
65190;BME280;51777;53.570;9.984;2022-12-18T01:07:39;102719.06;;;-3.77;100.00
65190;BME280;51777;53.570;9.984;2022-12-18T01:10:05;102719.94;;;-3.80;100.00
65190;BME280;51777;53.570;9.984;2022-12-18T01:12:32;102714.03;;;-3.83;100.00
65190;BME280;51777;53.570;9.984;2022-12-18T01:14:57;102716.56;;;-3.85;100.00
65190;BME280;51777;53.570;9.984;2022-12-18T01:17:23;102721.63;;;-3.87;100.00
65190;BME280;51777;53.570;9.984;2022-12-18T01:19:49;102713.19;;;-3.87;100.00
65190;BME280;51777;53.570;9.984;2022-12-18T01:22:14;102713.19;;;-3.87;100.00
65190;BME280;51777;53.570;9.984;2022-12-18T01:24:39;102725.00;;;-3.89;100.00
65190;BME280;51777;53.570;9.984;2022-12-18T01:27:05;102716.56;;;-3.88;100.00
65190;BME280;51777;53.570;9.984;2022-12-18T01:29:30;102705.63;;;-3.90;100.00
65190;BME280;51777;53.570;9.984;2022-12-18T01:31:56;102704.81;;;-3.94;100.00
65190;BME280;51777;53.570;9.984;2022-12-18T01:34:23;102709.84;;;-3.98;100.00
65190;BME280;51777;53.570;9.984;2022-12-18T01:36:48;102713.22;;;-3.99;100.00
65190;BME280;51777;53.570;9.984;2022-12-18T01:39:14;102719.97;;;-4.01;100.00
65190;BME280;51777;53.570;9.984;2022-12-18T01:41:40;102725.88;;;-4.05;100.00
65190;BME280;51777;53.570;9.984;2022-12-18T01:50:21;102724.22;;;-4.08;100.00
65190;BME280;51777;53.570;9.984;2022-12-18T01:52:52;102735.16;;;-4.09;100.00
65190;BME280;51777;53.570;9.984;2022-12-18T01:55:21;102738.53;;;-4.08;100.00
65190;BME280;51777;53.570;9.984;2022-12-18T01:57:47;102733.47;;;-4.11;100.00
65190;BME280;51777;53.570;9.984;2022-12-18T02:00:17;102729.25;;;-4.13;100.00
65190;BME280;51777;53.570;9.984;2022-12-18T02:02:45;102731.78;;;-4.16;100.00
65190;BME280;51777;53.570;9.984;2022-12-18T02:05:11;102738.53;;;-4.15;100.00
65190;BME280;51777;53.570;9.984;2022-12-18T02:10:17;102735.16;;;-4.12;100.00
65190;BME280;51777;53.570;9.984;2022-12-18T02:15:51;102728.44;;;-4.19;100.00
65190;BME280;51777;53.570;9.984;2022-12-18T02:18:32;102726.75;;;-4.19;100.00
65190;BME280;51777;53.570;9.984;2022-12-18T02:27:05;102742.75;;;-4.21;100.00
65190;BME280;51777;53.570;9.984;2022-12-18T02:29:36;102745.25;;;-4.23;100.00
65190;BME280;51777;53.570;9.984;2022-12-18T02:32:07;102742.75;;;-4.23;100.00
65190;BME280;51777;53.570;9.984;2022-12-18T02:34:37;102749.50;;;-4.20;100.00
65190;BME280;51777;53.570;9.984;2022-12-18T02:37:05;102751.16;;;-4.18;100.00
65190;BME280;51777;53.570;9.984;2022-12-18T02:39:34;102747.78;;;-4.17;100.00
65190;BME280;51777;53.570;9.984;2022-12-18T02:42:01;102751.16;;;-4.16;100.00
65190;BME280;51777;53.570;9.984;2022-12-18T02:44:32;102752.00;;;-4.16;100.00
65190;BME280;51777;53.570;9.984;2022-12-18T02:46:58;102746.94;;;-4.14;100.00
65190;BME280;51777;53.570;9.984;2022-12-18T02:52:25;102759.59;;;-4.17;100.00
65190;BME280;51777;53.570;9.984;2022-12-18T02:57:41;102765.50;;;-4.21;100.00
65190;BME280;51777;53.570;9.984;2022-12-18T03:00:14;102762.94;;;-4.26;100.00
65190;BME280;51777;53.570;9.984;2022-12-18T03:03:02;102766.31;;;-4.28;100.00
65190;BME280;51777;53.570;9.984;2022-12-18T03:05:34;102755.41;;;-4.33;100.00
65190;BME280;51777;53.570;9.984;2022-12-18T03:08:06;102750.34;;;-4.41;100.00
65190;BME280;51777;53.570;9.984;2022-12-18T03:10:41;102752.84;;;-4.47;100.00
65190;BME280;51777;53.570;9.984;2022-12-18T03:13:12;102751.19;;;-4.50;100.00
65190;BME280;51777;53.570;9.984;2022-12-18T03:15:43;102757.91;;;-4.53;100.00
65190;BME280;51777;53.570;9.984;2022-12-18T03:18:13;102762.13;;;-4.52;100.00
65190;BME280;51777;53.570;9.984;2022-12-18T03:20:42;102760.44;;;-4.50;100.00
65190;BME280;51777;53.570;9.984;2022-12-18T03:23:12;102764.63;;;-4.51;100.00
65190;BME280;51777;53.570;9.984;2022-12-18T03:25:41;102758.75;;;-4.51;100.00
65190;BME280;51777;53.570;9.984;2022-12-18T03:28:13;102761.28;;;-4.53;100.00
65190;BME280;51777;53.570;9.984;2022-12-18T03:30:41;102767.16;;;-4.52;100.00
65190;BME280;51777;53.570;9.984;2022-12-18T03:33:13;102765.47;;;-4.53;100.00
65190;BME280;51777;53.570;9.984;2022-12-18T03:35:43;102762.13;;;-4.54;100.00
65190;BME280;51777;53.570;9.984;2022-12-18T03:38:09;102763.81;;;-4.54;100.00
65190;BME280;51777;53.570;9.984;2022-12-18T03:43:34;102762.97;;;-4.55;100.00
65190;BME280;51777;53.570;9.984;2022-12-18T03:46:17;102765.47;;;-4.59;100.00
65190;BME280;51777;53.570;9.984;2022-12-18T03:48:48;102765.47;;;-4.62;100.00
65190;BME280;51777;53.570;9.984;2022-12-18T03:51:41;102756.22;;;-4.68;100.00
65190;BME280;51777;53.570;9.984;2022-12-18T03:54:09;102759.59;;;-4.67;100.00
65190;BME280;51777;53.570;9.984;2022-12-18T03:56:40;102762.13;;;-4.66;100.00
65190;BME280;51777;53.570;9.984;2022-12-18T03:59:08;102757.06;;;-4.67;100.00
65190;BME280;51777;53.570;9.984;2022-12-18T04:01:38;102761.28;;;-4.66;100.00
65190;BME280;51777;53.570;9.984;2022-12-18T04:04:06;102764.66;;;-4.70;100.00
65190;BME280;51777;53.570;9.984;2022-12-18T04:06:32;102761.28;;;-4.69;100.00
65190;BME280;51777;53.570;9.984;2022-12-18T04:08:59;102758.72;;;-4.76;100.00
65190;BME280;51777;53.570;9.984;2022-12-18T04:11:24;102746.97;;;-4.80;100.00
65190;BME280;51777;53.570;9.984;2022-12-18T04:13:50;102761.25;;;-4.83;100.00
65190;BME280;51777;53.570;9.984;2022-12-18T04:16:15;102759.56;;;-4.84;100.00
65190;BME280;51777;53.570;9.984;2022-12-18T04:18:40;102762.91;;;-4.84;100.00
65190;BME280;51777;53.570;9.984;2022-12-18T04:21:06;102762.06;;;-4.86;100.00
65190;BME280;51777;53.570;9.984;2022-12-18T04:23:31;102757.03;;;-4.93;100.00
65190;BME280;51777;53.570;9.984;2022-12-18T04:25:56;102757.84;;;-4.99;100.00
65190;BME280;51777;53.570;9.984;2022-12-18T04:28:22;102756.16;;;-5.00;100.00
65190;BME280;51777;53.570;9.984;2022-12-18T04:30:47;102761.22;;;-5.02;100.00
65190;BME280;51777;53.570;9.984;2022-12-18T04:33:13;102762.06;;;-5.01;100.00
65190;BME280;51777;53.570;9.984;2022-12-18T04:35:41;102760.38;;;-5.02;100.00
65190;BME280;51777;53.570;9.984;2022-12-18T04:38:07;102757.00;;;-5.07;100.00
65190;BME280;51777;53.570;9.984;2022-12-18T04:40:36;102759.50;;;-5.10;100.00
65190;BME280;51777;53.570;9.984;2022-12-18T04:43:03;102754.47;;;-5.13;100.00
65190;BME280;51777;53.570;9.984;2022-12-18T04:45:30;102756.13;;;-5.17;100.00
65190;BME280;51777;53.570;9.984;2022-12-18T04:48:00;102752.78;;;-5.13;100.00
65190;BME280;51777;53.570;9.984;2022-12-18T04:50:26;102753.63;;;-5.15;100.00
65190;BME280;51777;53.570;9.984;2022-12-18T04:52:51;102761.97;;;-5.22;100.00
65190;BME280;51777;53.570;9.984;2022-12-18T04:55:17;102761.13;;;-5.24;100.00
65190;BME280;51777;53.570;9.984;2022-12-18T04:57:42;102767.88;;;-5.23;100.00
65190;BME280;51777;53.570;9.984;2022-12-18T05:00:08;102758.63;;;-5.27;100.00
65190;BME280;51777;53.570;9.984;2022-12-18T05:02:34;102762.81;;;-5.28;100.00
65190;BME280;51777;53.570;9.984;2022-12-18T05:04:59;102772.91;;;-5.29;100.00
65190;BME280;51777;53.570;9.984;2022-12-18T05:07:24;102778.78;;;-5.30;100.00
65190;BME280;51777;53.570;9.984;2022-12-18T05:09:50;102785.50;;;-5.31;100.00
65190;BME280;51777;53.570;9.984;2022-12-18T05:12:15;102780.47;;;-5.29;100.00
65190;BME280;51777;53.570;9.984;2022-12-18T05:14:41;102788.88;;;-5.29;100.00
65190;BME280;51777;53.570;9.984;2022-12-18T05:17:06;102791.38;;;-5.27;100.00
65190;BME280;51777;53.570;9.984;2022-12-18T05:19:31;102791.38;;;-5.29;100.00
65190;BME280;51777;53.570;9.984;2022-12-18T05:21:57;102795.59;;;-5.26;100.00
65190;BME280;51777;53.570;9.984;2022-12-18T05:24:22;102796.44;;;-5.27;100.00
65190;BME280;51777;53.570;9.984;2022-12-18T05:26:48;102798.13;;;-5.28;100.00
65190;BME280;51777;53.570;9.984;2022-12-18T05:29:13;102793.91;;;-5.23;100.00
65190;BME280;51777;53.570;9.984;2022-12-18T05:31:39;102789.72;;;-5.24;100.00
65190;BME280;51777;53.570;9.984;2022-12-18T05:34:04;102783.00;;;-5.25;100.00
65190;BME280;51777;53.570;9.984;2022-12-18T05:36:30;102792.22;;;-5.24;100.00
65190;BME280;51777;53.570;9.984;2022-12-18T05:38:55;102802.31;;;-5.22;100.00
65190;BME280;51777;53.570;9.984;2022-12-18T05:41:21;102815.81;;;-5.20;100.00
65190;BME280;51777;53.570;9.984;2022-12-18T05:43:47;102822.53;;;-5.19;100.00
65190;BME280;51777;53.570;9.984;2022-12-18T05:46:14;102814.13;;;-5.18;100.00
65190;BME280;51777;53.570;9.984;2022-12-18T05:48:41;102811.59;;;-5.20;100.00
65190;BME280;51777;53.570;9.984;2022-12-18T05:51:09;102804.88;;;-5.21;100.00
65190;BME280;51777;53.570;9.984;2022-12-18T05:53:36;102808.25;;;-5.20;100.00
65190;BME280;51777;53.570;9.984;2022-12-18T05:56:03;102809.91;;;-5.19;100.00
65190;BME280;51777;53.570;9.984;2022-12-18T05:58:29;102815.81;;;-5.17;100.00
65190;BME280;51777;53.570;9.984;2022-12-18T06:00:55;102798.97;;;-5.24;100.00
65190;BME280;51777;53.570;9.984;2022-12-18T06:03:21;102809.03;;;-5.24;100.00
65190;BME280;51777;53.570;9.984;2022-12-18T06:05:46;102809.03;;;-5.24;100.00
65190;BME280;51777;53.570;9.984;2022-12-18T06:08:12;102808.19;;;-5.28;100.00
65190;BME280;51777;53.570;9.984;2022-12-18T06:10:38;102809.88;;;-5.27;100.00
65190;BME280;51777;53.570;9.984;2022-12-18T06:13:04;102817.44;;;-5.22;100.00
65190;BME280;51777;53.570;9.984;2022-12-18T06:15:30;102814.09;;;-5.21;100.00
65190;BME280;51777;53.570;9.984;2022-12-18T06:17:56;102817.50;;;-5.19;100.00
65190;BME280;51777;53.570;9.984;2022-12-18T06:20:21;102815.81;;;-5.19;100.00
65190;BME280;51777;53.570;9.984;2022-12-18T06:22:47;102814.97;;;-5.21;100.00
65190;BME280;51777;53.570;9.984;2022-12-18T06:25:12;102820.00;;;-5.21;100.00
65190;BME280;51777;53.570;9.984;2022-12-18T06:27:38;102819.97;;;-5.22;100.00
65190;BME280;51777;53.570;9.984;2022-12-18T06:30:04;102817.44;;;-5.24;100.00
65190;BME280;51777;53.570;9.984;2022-12-18T06:32:30;102834.25;;;-5.24;100.00
65190;BME280;51777;53.570;9.984;2022-12-18T06:34:55;102833.41;;;-5.23;100.00
65190;BME280;51777;53.570;9.984;2022-12-18T06:37:21;102832.56;;;-5.25;100.00
65190;BME280;51777;53.570;9.984;2022-12-18T06:39:49;102840.13;;;-5.27;100.00
65190;BME280;51777;53.570;9.984;2022-12-18T06:42:14;102834.25;;;-5.29;100.00
65190;BME280;51777;53.570;9.984;2022-12-18T06:44:39;102832.56;;;-5.30;100.00
65190;BME280;51777;53.570;9.984;2022-12-18T06:47:05;102833.41;;;-5.33;100.00
65190;BME280;51777;53.570;9.984;2022-12-18T06:49:30;102829.19;;;-5.30;100.00
65190;BME280;51777;53.570;9.984;2022-12-18T06:51:55;102830.88;;;-5.33;100.00
65190;BME280;51777;53.570;9.984;2022-12-18T06:54:21;102831.72;;;-5.30;100.00
65190;BME280;51777;53.570;9.984;2022-12-18T06:56:46;102830.03;;;-5.32;100.00
65190;BME280;51777;53.570;9.984;2022-12-18T06:59:12;102830.88;;;-5.33;100.00
65190;BME280;51777;53.570;9.984;2022-12-18T07:01:39;102830.88;;;-5.33;100.00
65190;BME280;51777;53.570;9.984;2022-12-18T07:04:05;102830.84;;;-5.34;100.00
65190;BME280;51777;53.570;9.984;2022-12-18T07:06:30;102836.72;;;-5.34;100.00
65190;BME280;51777;53.570;9.984;2022-12-18T07:08:56;102834.19;;;-5.38;100.00
65190;BME280;51777;53.570;9.984;2022-12-18T07:11:22;102838.41;;;-5.36;100.00
65190;BME280;51777;53.570;9.984;2022-12-18T07:13:48;102846.00;;;-5.33;100.00
65190;BME280;51777;53.570;9.984;2022-12-18T07:16:15;102844.31;;;-5.32;100.00
65190;BME280;51777;53.570;9.984;2022-12-18T07:18:41;102846.81;;;-5.34;100.00
65190;BME280;51777;53.570;9.984;2022-12-18T07:21:09;102844.28;;;-5.40;100.00
65190;BME280;51777;53.570;9.984;2022-12-18T07:23:35;102842.59;;;-5.36;100.00
65190;BME280;51777;53.570;9.984;2022-12-18T07:26:05;102855.19;;;-5.36;100.00
65190;BME280;51777;53.570;9.984;2022-12-18T07:28:32;102857.72;;;-5.35;100.00
65190;BME280;51777;53.570;9.984;2022-12-18T07:31:02;102854.38;;;-5.35;100.00
65190;BME280;51777;53.570;9.984;2022-12-18T07:33:28;102853.56;;;-5.31;100.00
65190;BME280;51777;53.570;9.984;2022-12-18T07:35:53;102852.72;;;-5.28;100.00
65190;BME280;51777;53.570;9.984;2022-12-18T07:38:18;102860.28;;;-5.32;100.00
65190;BME280;51777;53.570;9.984;2022-12-18T07:40:44;102861.13;;;-5.33;100.00
65190;BME280;51777;53.570;9.984;2022-12-18T07:43:09;102858.56;;;-5.36;100.00
65190;BME280;51777;53.570;9.984;2022-12-18T07:45:34;102859.41;;;-5.37;100.00
65190;BME280;51777;53.570;9.984;2022-12-18T07:48:00;102866.13;;;-5.36;100.00
65190;BME280;51777;53.570;9.984;2022-12-18T07:50:25;102858.59;;;-5.33;100.00
65190;BME280;51777;53.570;9.984;2022-12-18T07:52:51;102873.72;;;-5.31;100.00
65190;BME280;51777;53.570;9.984;2022-12-18T07:55:16;102876.25;;;-5.29;100.00
65190;BME280;51777;53.570;9.984;2022-12-18T07:57:41;102875.44;;;-5.27;100.00
65190;BME280;51777;53.570;9.984;2022-12-18T08:00:07;102879.63;;;-5.27;100.00
65190;BME280;51777;53.570;9.984;2022-12-18T08:02:33;102870.38;;;-5.27;100.00
65190;BME280;51777;53.570;9.984;2022-12-18T08:04:58;102872.91;;;-5.22;100.00
65190;BME280;51777;53.570;9.984;2022-12-18T08:07:24;102866.22;;;-5.19;100.00
65190;BME280;51777;53.570;9.984;2022-12-18T08:09:49;102868.72;;;-5.22;100.00
65190;BME280;51777;53.570;9.984;2022-12-18T08:12:15;102877.16;;;-5.15;100.00
65190;BME280;51777;53.570;9.984;2022-12-18T08:14:40;102875.50;;;-5.12;100.00
65190;BME280;51777;53.570;9.984;2022-12-18T08:17:05;102859.53;;;-5.09;100.00
65190;BME280;51777;53.570;9.984;2022-12-18T08:19:31;102865.44;;;-5.06;100.00
65190;BME280;51777;53.570;9.984;2022-12-18T08:21:56;102864.63;;;-5.00;100.00
65190;BME280;51777;53.570;9.984;2022-12-18T08:24:22;102856.22;;;-5.02;100.00
65190;BME280;51777;53.570;9.984;2022-12-18T08:26:47;102859.63;;;-4.94;100.00
65190;BME280;51777;53.570;9.984;2022-12-18T08:29:13;102857.94;;;-4.87;100.00
65190;BME280;51777;53.570;9.984;2022-12-18T08:31:38;102867.22;;;-4.80;100.00
65190;BME280;51777;53.570;9.984;2022-12-18T08:34:04;102872.28;;;-4.82;100.00
65190;BME280;51777;53.570;9.984;2022-12-18T08:36:29;102862.19;;;-4.82;100.00
65190;BME280;51777;53.570;9.984;2022-12-18T08:38:55;102856.28;;;-4.81;100.00
65190;BME280;51777;53.570;9.984;2022-12-18T08:41:21;102857.97;;;-4.81;100.00
65190;BME280;51777;53.570;9.984;2022-12-18T08:43:46;102851.25;;;-4.81;100.00
65190;BME280;51777;53.570;9.984;2022-12-18T08:46:36;102859.66;;;-4.76;100.00
65190;BME280;51777;53.570;9.984;2022-12-18T08:49:02;102873.13;;;-4.78;100.00
65190;BME280;51777;53.570;9.984;2022-12-18T08:51:28;102860.50;;;-4.80;100.00
65190;BME280;51777;53.570;9.984;2022-12-18T08:53:53;102865.53;;;-4.75;100.00
65190;BME280;51777;53.570;9.984;2022-12-18T08:56:18;102865.53;;;-4.72;100.00
65190;BME280;51777;53.570;9.984;2022-12-18T08:58:44;102860.50;;;-4.72;100.00
65190;BME280;51777;53.570;9.984;2022-12-18T09:01:11;102862.19;;;-4.76;100.00
65190;BME280;51777;53.570;9.984;2022-12-18T09:03:37;102861.34;;;-4.75;100.00
65190;BME280;51777;53.570;9.984;2022-12-18T09:06:03;102858.00;;;-4.69;100.00
65190;BME280;51777;53.570;9.984;2022-12-18T09:08:29;102871.47;;;-4.64;100.00
65190;BME280;51777;53.570;9.984;2022-12-18T09:10:54;102874.03;;;-4.58;100.00
65190;BME280;51777;53.570;9.984;2022-12-18T09:13:20;102879.06;;;-4.55;100.00
65190;BME280;51777;53.570;9.984;2022-12-18T09:15:48;102869.81;;;-4.56;100.00
65190;BME280;51777;53.570;9.984;2022-12-18T09:18:15;102867.28;;;-4.47;100.00
65190;BME280;51777;53.570;9.984;2022-12-18T09:20:41;102854.66;;;-4.48;100.00
65190;BME280;51777;53.570;9.984;2022-12-18T09:23:07;102865.63;;;-4.45;100.00
65190;BME280;51777;53.570;9.984;2022-12-18T09:25:33;102861.41;;;-4.38;100.00
65190;BME280;51777;53.570;9.984;2022-12-18T09:28:14;102868.16;;;-4.43;100.00
65190;BME280;51777;53.570;9.984;2022-12-18T09:30:44;102869.00;;;-4.38;100.00
65190;BME280;51777;53.570;9.984;2022-12-18T09:33:10;102875.75;;;-4.34;100.00
65190;BME280;51777;53.570;9.984;2022-12-18T09:35:37;102869.84;;;-4.30;100.00
65190;BME280;51777;53.570;9.984;2022-12-18T09:38:04;102867.34;;;-4.30;100.00
65190;BME280;51777;53.570;9.984;2022-12-18T09:40:35;102869.84;;;-4.24;100.00
65190;BME280;51777;53.570;9.984;2022-12-18T09:43:04;102872.41;;;-4.18;100.00
65190;BME280;51777;53.570;9.984;2022-12-18T09:45:40;102870.69;;;-4.09;100.00
65190;BME280;51777;53.570;9.984;2022-12-18T09:48:15;102874.91;;;-3.99;100.00
65190;BME280;51777;53.570;9.984;2022-12-18T09:50:44;102874.94;;;-3.84;100.00
65190;BME280;51777;53.570;9.984;2022-12-18T09:53:15;102873.22;;;-3.76;100.00
65190;BME280;51777;53.570;9.984;2022-12-18T09:55:45;102865.63;;;-3.73;100.00
65190;BME280;51777;53.570;9.984;2022-12-18T10:00:36;102873.22;;;-3.65;100.00
65190;BME280;51777;53.570;9.984;2022-12-18T10:03:22;102874.06;;;-3.59;100.00
65190;BME280;51777;53.570;9.984;2022-12-18T10:06:13;102874.88;;;-3.44;100.00
65190;BME280;51777;53.570;9.984;2022-12-18T10:08:56;102882.44;;;-3.34;100.00
65190;BME280;51777;53.570;9.984;2022-12-18T10:14:23;102883.25;;;-3.21;100.00
65190;BME280;51777;53.570;9.984;2022-12-18T10:16:59;102884.03;;;-3.13;100.00
65190;BME280;51777;53.570;9.984;2022-12-18T10:19:56;102878.16;;;-3.09;100.00
65190;BME280;51777;53.570;9.984;2022-12-18T10:22:26;102878.09;;;-3.00;100.00
65190;BME280;51777;53.570;9.984;2022-12-18T10:27:46;102883.06;;;-2.72;100.00
65190;BME280;51777;53.570;9.984;2022-12-18T10:30:14;102888.91;;;-2.64;100.00
65190;BME280;51777;53.570;9.984;2022-12-18T10:32:40;102889.78;;;-2.71;100.00
65190;BME280;51777;53.570;9.984;2022-12-18T10:35:15;102884.69;;;-2.65;100.00
65190;BME280;51777;53.570;9.984;2022-12-18T10:40:51;102892.25;;;-2.57;100.00
65190;BME280;51777;53.570;9.984;2022-12-18T10:43:21;102888.03;;;-2.63;100.00
65190;BME280;51777;53.570;9.984;2022-12-18T10:46:11;102887.22;;;-2.65;100.00
65190;BME280;51777;53.570;9.984;2022-12-18T10:51:28;102878.69;;;-2.47;100.00
65190;BME280;51777;53.570;9.984;2022-12-18T10:53:59;102873.66;;;-2.53;100.00
65190;BME280;51777;53.570;9.984;2022-12-18T10:56:27;102877.06;;;-2.57;100.00
65190;BME280;51777;53.570;9.984;2022-12-18T10:59:05;102858.41;;;-2.49;100.00
65190;BME280;51777;53.570;9.984;2022-12-18T11:01:52;102855.03;;;-2.46;100.00
65190;BME280;51777;53.570;9.984;2022-12-18T11:04:23;102858.34;;;-2.35;100.00
65190;BME280;51777;53.570;9.984;2022-12-18T11:11:56;102862.56;;;-2.39;100.00
65190;BME280;51777;53.570;9.984;2022-12-18T11:14:25;102854.84;;;-2.23;100.00
65190;BME280;51777;53.570;9.984;2022-12-18T11:16:52;102851.41;;;-2.13;100.00
65190;BME280;51777;53.570;9.984;2022-12-18T11:19:25;102872.50;;;-2.11;100.00
65190;BME280;51777;53.570;9.984;2022-12-18T11:21:51;102864.03;;;-2.07;100.00
65190;BME280;51777;53.570;9.984;2022-12-18T11:24:28;102867.38;;;-2.03;100.00
65190;BME280;51777;53.570;9.984;2022-12-18T11:26:58;102864.88;;;-2.07;100.00
65190;BME280;51777;53.570;9.984;2022-12-18T11:29:34;102851.31;;;-2.01;100.00
65190;BME280;51777;53.570;9.984;2022-12-18T11:35:02;102851.25;;;-1.95;100.00
65190;BME280;51777;53.570;9.984;2022-12-18T11:37:29;102842.06;;;-2.07;100.00
65190;BME280;51777;53.570;9.984;2022-12-18T11:40:03;102845.47;;;-2.09;100.00
65190;BME280;51777;53.570;9.984;2022-12-18T11:42:50;102842.03;;;-2.02;100.00
65190;BME280;51777;53.570;9.984;2022-12-18T11:45:30;102837.78;;;-1.98;100.00
65190;BME280;51777;53.570;9.984;2022-12-18T11:48:28;102846.13;;;-1.89;100.00
65190;BME280;51777;53.570;9.984;2022-12-18T11:50:57;102841.88;;;-1.84;100.00
65190;BME280;51777;53.570;9.984;2022-12-18T11:53:25;102845.22;;;-1.80;100.00
65190;BME280;51777;53.570;9.984;2022-12-18T11:56:01;102846.91;;;-1.81;100.00
65190;BME280;51777;53.570;9.984;2022-12-18T12:01:59;102818.34;;;-2.01;100.00
65190;BME280;51777;53.570;9.984;2022-12-18T12:16:25;102798.81;;;-1.90;100.00
65190;BME280;51777;53.570;9.984;2022-12-18T12:21:39;102799.72;;;-1.94;100.00
65190;BME280;51777;53.570;9.984;2022-12-18T12:29:39;102780.28;;;-1.93;100.00
65190;BME280;51777;53.570;9.984;2022-12-18T12:32:36;102774.28;;;-1.85;100.00
65190;BME280;51777;53.570;9.984;2022-12-18T12:40:56;102754.75;;;-1.77;100.00
65190;BME280;51777;53.570;9.984;2022-12-18T12:46:00;102737.69;;;-1.64;99.63
65190;BME280;51777;53.570;9.984;2022-12-18T12:51:03;102731.72;;;-1.58;98.59
65190;BME280;51777;53.570;9.984;2022-12-18T12:53:35;102724.94;;;-1.56;95.64
65190;BME280;51777;53.570;9.984;2022-12-18T12:56:02;102731.66;;;-1.55;95.35
65190;BME280;51777;53.570;9.984;2022-12-18T12:58:33;102733.31;;;-1.51;94.52
65190;BME280;51777;53.570;9.984;2022-12-18T13:08:58;102726.56;;;-1.52;92.57
65190;BME280;51777;53.570;9.984;2022-12-18T13:11:37;102724.94;;;-1.56;92.80
65190;BME280;51777;53.570;9.984;2022-12-18T13:14:37;102722.47;;;-1.61;93.20
65190;BME280;51777;53.570;9.984;2022-12-18T13:20:12;102745.31;;;-1.65;93.35
65190;BME280;51777;53.570;9.984;2022-12-18T13:22:44;102736.84;;;-1.64;92.99
65190;BME280;51777;53.570;9.984;2022-12-18T13:25:30;102732.78;;;-1.79;93.24
65190;BME280;51777;53.570;9.984;2022-12-18T13:27:59;102716.78;;;-1.83;94.24
65190;BME280;51777;53.570;9.984;2022-12-18T13:41:23;102707.94;;;-2.25;95.94
65190;BME280;51777;53.570;9.984;2022-12-18T13:43:51;102713.00;;;-2.22;97.11
65190;BME280;51777;53.570;9.984;2022-12-18T13:51:40;102719.69;;;-2.18;96.76
65190;BME280;51777;53.570;9.984;2022-12-18T13:56:45;102719.81;;;-2.31;97.55
65190;BME280;51777;53.570;9.984;2022-12-18T14:04:28;102715.66;;;-2.35;98.88
65190;BME280;51777;53.570;9.984;2022-12-18T14:07:27;102713.97;;;-2.40;99.00
65190;BME280;51777;53.570;9.984;2022-12-18T14:09:54;102703.81;;;-2.37;99.31
65190;BME280;51777;53.570;9.984;2022-12-18T14:12:28;102711.44;;;-2.40;99.43
65190;BME280;51777;53.570;9.984;2022-12-18T14:15:31;102711.53;;;-2.46;100.00
65190;BME280;51777;53.570;9.984;2022-12-18T14:18:23;102704.84;;;-2.56;100.00
65190;BME280;51777;53.570;9.984;2022-12-18T14:20:52;102714.16;;;-2.61;100.00
65190;BME280;51777;53.570;9.984;2022-12-18T14:23:36;102704.88;;;-2.62;100.00
65190;BME280;51777;53.570;9.984;2022-12-18T14:26:18;102711.72;;;-2.70;100.00
65190;BME280;51777;53.570;9.984;2022-12-18T14:28:44;102701.53;;;-2.64;100.00
65190;BME280;51777;53.570;9.984;2022-12-18T14:31:21;102695.72;;;-2.75;100.00
65190;BME280;51777;53.570;9.984;2022-12-18T14:33:47;102689.81;;;-2.76;100.00
65190;BME280;51777;53.570;9.984;2022-12-18T14:36:16;102688.97;;;-2.76;100.00
65190;BME280;51777;53.570;9.984;2022-12-18T14:38:42;102694.06;;;-2.79;100.00
65190;BME280;51777;53.570;9.984;2022-12-18T14:41:15;102699.16;;;-2.85;100.00
65190;BME280;51777;53.570;9.984;2022-12-18T14:43:43;102694.13;;;-2.88;100.00
65190;BME280;51777;53.570;9.984;2022-12-18T14:46:28;102691.59;;;-2.88;100.00
65190;BME280;51777;53.570;9.984;2022-12-18T14:48:55;102705.91;;;-2.86;100.00